createdAt,value
2023-03-15T00:01:29.101Z,7.33
2023-03-15T00:03:56.212Z,6.73
2023-03-15T00:06:23.643Z,7.17
2023-03-15T00:08:52.028Z,6.57
2023-03-15T00:11:19.585Z,6.27
2023-03-15T00:13:46.878Z,6.47
2023-03-15T00:16:18.382Z,6.47
2023-03-15T00:18:48.205Z,6.17
2023-03-15T00:21:15.650Z,6.20
2023-03-15T00:23:42.805Z,6.43
2023-03-15T00:26:10.359Z,7.40
2023-03-15T00:28:37.519Z,6.67
2023-03-15T00:31:15.242Z,6.37
2023-03-15T00:33:42.555Z,6.67
2023-03-15T00:36:11.728Z,6.97
2023-03-15T00:38:40.605Z,6.10
2023-03-15T00:41:13.220Z,7.13
2023-03-15T00:43:40.631Z,9.43
2023-03-15T00:46:08.306Z,8.23
2023-03-15T00:48:35.761Z,9.23
2023-03-15T00:51:17.014Z,8.40
2023-03-15T00:53:45.713Z,6.10
2023-03-15T00:56:17.006Z,3.43
2023-03-15T00:58:43.980Z,1.97
2023-03-15T01:01:25.788Z,1.83
2023-03-15T01:03:53.642Z,1.30
2023-03-15T01:06:26.164Z,1.20
2023-03-15T01:08:55.794Z,1.17
2023-03-15T01:11:26.094Z,1.07
2023-03-15T01:13:55.328Z,1.07
2023-03-15T01:16:23.497Z,0.97
2023-03-15T01:18:51.774Z,1.10
2023-03-15T01:21:20.646Z,0.90
2023-03-15T01:23:47.834Z,1.23
2023-03-15T01:26:17.093Z,1.40
2023-03-15T01:28:44.501Z,1.33
2023-03-15T01:31:23.669Z,0.97
2023-03-15T01:33:50.750Z,1.50
2023-03-15T01:36:18.164Z,1.70
2023-03-15T01:38:45.800Z,1.23
2023-03-15T01:41:14.292Z,1.77
2023-03-15T01:43:47.291Z,0.93
2023-03-15T01:46:24.619Z,1.67
2023-03-15T01:49:00.675Z,1.10
2023-03-15T01:51:34.268Z,2.63
2023-03-15T01:54:05.098Z,1.63
2023-03-15T01:56:35.368Z,1.70
2023-03-15T01:59:05.647Z,2.20
2023-03-15T02:01:36.398Z,2.63
2023-03-15T02:04:10.005Z,2.07
2023-03-15T02:06:37.668Z,1.50
2023-03-15T02:09:15.175Z,1.50
2023-03-15T02:11:43.731Z,1.10
2023-03-15T02:14:13.523Z,1.30
2023-03-15T02:16:41.023Z,1.77
2023-03-15T02:19:21.640Z,1.40
2023-03-15T02:22:10.151Z,2.30
2023-03-15T02:25:01.400Z,1.37
2023-03-15T02:27:34.582Z,1.10
2023-03-15T02:30:03.371Z,1.37
2023-03-15T02:32:31.596Z,1.27
2023-03-15T02:34:59.125Z,1.00
2023-03-15T02:37:26.581Z,1.27
2023-03-15T02:39:53.515Z,1.40
2023-03-15T02:42:20.965Z,0.80
2023-03-15T02:44:50.817Z,1.53
2023-03-15T02:47:22.595Z,1.00
2023-03-15T02:49:56.322Z,1.07
2023-03-15T02:52:23.630Z,0.80
2023-03-15T02:54:50.785Z,0.83
2023-03-15T02:57:19.307Z,0.80
2023-03-15T02:59:46.348Z,0.60
2023-03-15T03:02:13.828Z,1.00
2023-03-15T03:04:41.835Z,0.77
2023-03-15T03:07:09.111Z,1.07
2023-03-15T03:09:36.152Z,1.23
2023-03-15T03:12:03.549Z,0.83
2023-03-15T03:14:31.299Z,1.20
2023-03-15T03:16:58.601Z,0.87
2023-03-15T03:19:26.156Z,1.33
2023-03-15T03:21:54.371Z,1.50
2023-03-15T03:24:21.737Z,1.33
2023-03-15T03:26:48.941Z,1.40
2023-03-15T03:29:16.687Z,1.10
2023-03-15T03:31:44.769Z,1.03
2023-03-15T03:34:14.680Z,1.10
2023-03-15T03:36:43.309Z,1.37
2023-03-15T03:39:10.744Z,1.10
2023-03-15T03:41:38.181Z,1.80
2023-03-15T03:44:05.479Z,1.63
2023-03-15T03:46:32.787Z,1.43
2023-03-15T03:48:59.804Z,1.33
2023-03-15T03:51:27.039Z,1.20
2023-03-15T03:53:53.967Z,1.03
2023-03-15T03:56:21.207Z,1.63
2023-03-15T03:58:48.132Z,1.73
2023-03-15T04:01:15.364Z,1.80
2023-03-15T04:03:42.406Z,1.67
2023-03-15T04:06:09.959Z,1.83
2023-03-15T04:08:37.154Z,1.90
2023-03-15T04:11:04.481Z,2.20
2023-03-15T04:13:31.601Z,1.73
2023-03-15T04:16:01.381Z,2.10
2023-03-15T04:18:28.573Z,3.33
2023-03-15T04:20:55.844Z,1.90
2023-03-15T04:23:23.966Z,1.70
2023-03-15T04:25:52.708Z,2.23
2023-03-15T04:28:19.944Z,2.20
2023-03-15T04:30:49.476Z,1.90
2023-03-15T04:33:16.957Z,2.57
2023-03-15T04:35:44.272Z,2.53
2023-03-15T04:38:11.249Z,2.57
2023-03-15T04:40:38.487Z,2.70
2023-03-15T04:43:05.937Z,2.43
2023-03-15T04:45:34.148Z,2.40
2023-03-15T04:48:02.128Z,2.70
2023-03-15T04:50:30.399Z,3.60
2023-03-15T04:53:00.408Z,3.10
2023-03-15T04:55:27.953Z,3.57
2023-03-15T04:57:55.425Z,2.07
2023-03-15T05:00:22.930Z,2.30
2023-03-15T05:02:55.023Z,2.57
2023-03-15T05:05:23.904Z,3.03
2023-03-15T05:07:51.314Z,2.37
2023-03-15T05:10:18.894Z,2.43
2023-03-15T05:12:46.065Z,2.40
2023-03-15T05:15:13.595Z,2.53
2023-03-15T05:17:40.619Z,2.33
2023-03-15T05:20:12.521Z,2.10
2023-03-15T05:22:40.908Z,2.50
2023-03-15T05:25:10.368Z,2.00
2023-03-15T05:27:38.316Z,2.73
2023-03-15T05:30:08.005Z,2.60
2023-03-15T05:32:35.359Z,3.10
2023-03-15T05:35:06.289Z,2.37
2023-03-15T05:37:33.696Z,2.80
2023-03-15T05:40:01.496Z,3.33
2023-03-15T05:42:29.382Z,2.60
2023-03-15T05:44:57.348Z,2.63
2023-03-15T05:47:24.443Z,2.40
2023-03-15T05:49:52.458Z,4.30
2023-03-15T05:52:19.512Z,3.80
2023-03-15T05:54:46.811Z,4.87
2023-03-15T05:57:13.792Z,4.00
2023-03-15T05:59:41.118Z,3.73
2023-03-15T06:02:08.317Z,5.00
2023-03-15T06:04:36.548Z,4.70
2023-03-15T06:07:03.982Z,4.10
2023-03-15T06:09:31.452Z,3.63
2023-03-15T06:11:59.192Z,4.03
2023-03-15T06:14:27.557Z,4.13
2023-03-15T06:16:54.925Z,4.77
2023-03-15T06:19:23.074Z,4.10
2023-03-15T06:21:50.203Z,3.87
2023-03-15T06:24:17.428Z,4.53
2023-03-15T06:26:44.617Z,3.97
2023-03-15T06:29:11.874Z,5.23
2023-03-15T06:31:38.814Z,4.77
2023-03-15T06:34:06.083Z,4.27
2023-03-15T06:36:33.229Z,4.33
2023-03-15T06:39:00.525Z,4.57
2023-03-15T06:41:27.469Z,3.70
2023-03-15T06:43:54.788Z,5.00
2023-03-15T06:46:21.781Z,4.53
2023-03-15T06:48:49.052Z,3.93
2023-03-15T06:51:16.050Z,4.87
2023-03-15T06:53:43.302Z,4.80
2023-03-15T06:56:11.044Z,4.73
2023-03-15T06:58:38.349Z,4.57
2023-03-15T07:01:05.776Z,5.10
2023-03-15T07:03:33.253Z,5.10
2023-03-15T07:06:00.278Z,5.23
2023-03-15T07:08:27.703Z,5.20
2023-03-15T07:10:54.835Z,5.77
2023-03-15T07:13:22.154Z,4.80
2023-03-15T07:15:53.953Z,5.33
2023-03-15T07:18:21.232Z,4.53
2023-03-15T07:20:48.223Z,5.03
2023-03-15T07:23:16.093Z,4.47
2023-03-15T07:25:54.350Z,6.63
2023-03-15T07:28:23.424Z,5.40
2023-03-15T07:30:58.582Z,4.33
2023-03-15T07:33:27.200Z,5.07
2023-03-15T07:35:54.861Z,5.50
2023-03-15T07:38:23.778Z,4.97
2023-03-15T07:40:51.002Z,4.63
2023-03-15T07:43:19.318Z,4.87
2023-03-15T07:45:46.411Z,4.77
2023-03-15T07:48:14.060Z,6.63
2023-03-15T07:50:41.423Z,5.80
2023-03-15T07:53:08.807Z,5.93
2023-03-15T07:55:36.251Z,6.40
2023-03-15T07:58:03.665Z,5.63
2023-03-15T08:00:30.637Z,6.47
2023-03-15T08:02:58.544Z,7.37
2023-03-15T08:05:28.462Z,6.37
2023-03-15T08:07:56.786Z,5.87
2023-03-15T08:10:24.047Z,4.90
2023-03-15T08:12:51.388Z,6.07
2023-03-15T08:15:19.122Z,6.70
2023-03-15T08:17:48.857Z,5.57
2023-03-15T08:20:19.714Z,5.80
2023-03-15T08:22:48.597Z,5.03
2023-03-15T08:25:17.921Z,6.43
2023-03-15T08:27:45.279Z,5.27
2023-03-15T08:30:14.805Z,5.20
2023-03-15T08:32:44.040Z,5.57
2023-03-15T08:35:15.516Z,5.77
2023-03-15T08:37:47.865Z,5.80
2023-03-15T08:40:25.840Z,4.90
2023-03-15T08:42:54.097Z,4.50
2023-03-15T08:45:23.970Z,4.90
2023-03-15T08:47:55.768Z,4.23
2023-03-15T08:50:23.093Z,4.37
2023-03-15T08:52:50.873Z,4.47
2023-03-15T08:55:18.218Z,3.80
2023-03-15T08:57:46.589Z,4.20
2023-03-15T09:00:20.672Z,4.50
2023-03-15T09:02:49.807Z,4.37
2023-03-15T09:05:17.004Z,4.33
2023-03-15T09:07:45.534Z,4.20
2023-03-15T09:10:17.441Z,4.37
2023-03-15T09:12:47.294Z,4.20
2023-03-15T09:15:14.875Z,3.33
2023-03-15T09:17:42.926Z,4.23
2023-03-15T09:20:19.053Z,3.67
2023-03-15T09:22:57.946Z,4.07
2023-03-15T09:25:26.284Z,4.03
2023-03-15T09:27:53.903Z,3.87
2023-03-15T09:30:21.126Z,3.83
2023-03-15T09:32:49.034Z,3.23
2023-03-15T09:35:18.651Z,3.37
2023-03-15T09:37:46.723Z,3.00
2023-03-15T09:40:22.232Z,3.87
2023-03-15T09:42:57.159Z,3.10
2023-03-15T09:45:30.915Z,3.07
2023-03-15T09:48:08.521Z,2.93
2023-03-15T09:50:48.444Z,3.40
2023-03-15T09:53:24.381Z,3.70
2023-03-15T09:55:52.557Z,3.17
2023-03-15T09:58:40.794Z,3.37
2023-03-15T10:01:13.891Z,3.90
2023-03-15T10:03:50.277Z,3.77
2023-03-15T10:06:36.456Z,3.73
2023-03-15T10:09:12.587Z,3.90
2023-03-15T10:11:58.112Z,3.70
2023-03-15T10:14:35.139Z,4.23
2023-03-15T10:17:07.027Z,3.80
2023-03-15T10:19:53.406Z,4.00
2023-03-15T10:22:30.164Z,3.87
2023-03-15T10:25:15.340Z,3.37
2023-03-15T10:28:04.116Z,3.13
2023-03-15T10:30:34.068Z,3.20
2023-03-15T10:33:24.399Z,3.70
2023-03-15T10:35:56.097Z,3.23
2023-03-15T10:38:26.682Z,4.33
2023-03-15T10:40:59.216Z,3.60
2023-03-15T10:43:36.792Z,3.50
2023-03-15T10:46:09.548Z,3.30
2023-03-15T10:48:39.025Z,3.77
2023-03-15T10:51:31.790Z,4.10
2023-03-15T10:54:07.349Z,3.33
2023-03-15T10:57:04.114Z,3.20
2023-03-15T10:59:36.005Z,3.03
2023-03-15T11:02:12.371Z,2.90
2023-03-15T11:04:47.454Z,3.60
2023-03-15T11:07:14.770Z,3.10
2023-03-15T11:09:44.948Z,3.80
2023-03-15T11:12:29.425Z,3.70
2023-03-15T11:15:01.788Z,3.37
2023-03-15T11:17:34.842Z,3.57
2023-03-15T11:20:15.935Z,3.07
2023-03-15T11:22:43.538Z,3.23
2023-03-15T11:25:18.345Z,3.80
2023-03-15T11:27:52.035Z,3.57
2023-03-15T11:30:21.409Z,3.20
2023-03-15T11:32:49.280Z,3.57
2023-03-15T11:35:23.205Z,3.23
2023-03-15T11:38:03.129Z,2.90
2023-03-15T11:40:50.926Z,3.70
2023-03-15T11:43:23.604Z,2.50
2023-03-15T11:47:04.466Z,3.00
2023-03-15T11:49:40.282Z,2.87
2023-03-15T11:52:09.022Z,2.50
2023-03-15T11:54:36.836Z,2.40
2023-03-15T11:57:28.109Z,2.40
2023-03-15T11:59:56.961Z,2.53
2023-03-15T12:03:11.482Z,2.70
2023-03-15T12:06:13.702Z,3.00
2023-03-15T12:08:53.201Z,4.13
2023-03-15T12:11:35.130Z,3.87
2023-03-15T12:14:02.858Z,4.00
2023-03-15T12:17:09.744Z,3.50
2023-03-15T12:19:37.066Z,4.30
2023-03-15T12:23:04.175Z,4.40
2023-03-15T12:25:55.510Z,4.10
2023-03-15T12:29:18.429Z,4.17
2023-03-15T12:31:52.526Z,4.00
2023-03-15T12:34:24.795Z,4.50
2023-03-15T12:36:55.826Z,4.30
2023-03-15T12:39:48.540Z,5.23
2023-03-15T12:42:31.375Z,4.43
2023-03-15T12:45:18.034Z,3.87
2023-03-15T12:47:52.150Z,4.30
2023-03-15T12:50:47.996Z,4.40
2023-03-15T12:53:22.525Z,4.37
2023-03-15T12:55:59.521Z,3.77
2023-03-15T12:58:37.227Z,3.97
2023-03-15T13:01:07.521Z,3.70
2023-03-15T13:03:36.238Z,3.73
2023-03-15T13:06:42.465Z,3.87
2023-03-15T13:09:26.973Z,4.40
2023-03-15T13:12:08.392Z,3.60
2023-03-15T13:14:56.549Z,4.00
2023-03-15T13:17:37.887Z,4.03
2023-03-15T13:20:30.269Z,3.33
2023-03-15T13:23:19.400Z,3.33
2023-03-15T13:25:58.913Z,3.40
2023-03-15T13:28:40.123Z,3.77
2023-03-15T13:31:22.420Z,3.60
2023-03-15T13:33:57.204Z,3.40
2023-03-15T13:36:49.270Z,3.97
2023-03-15T13:39:24.046Z,4.03
2023-03-15T13:42:17.002Z,4.23
2023-03-15T13:45:13.213Z,3.73
2023-03-15T13:47:55.099Z,4.00
2023-03-15T13:50:22.780Z,4.70
2023-03-15T13:52:49.912Z,3.57
2023-03-15T13:55:22.729Z,2.33
2023-03-15T13:57:55.141Z,2.67
2023-03-15T14:00:23.429Z,2.63
2023-03-15T14:02:58.304Z,2.40
2023-03-15T14:05:29.095Z,2.50
2023-03-15T14:08:04.577Z,3.30
2023-03-15T14:10:35.924Z,3.60
2023-03-15T14:13:23.638Z,3.13
2023-03-15T14:15:56.553Z,3.00
2023-03-15T14:18:25.904Z,3.60
2023-03-15T14:21:00.385Z,4.10
2023-03-15T14:23:31.790Z,3.73
2023-03-15T14:26:27.135Z,4.53
2023-03-15T14:29:15.628Z,4.20
2023-03-15T14:31:48.851Z,3.87
2023-03-15T14:34:30.163Z,5.07
2023-03-15T14:36:59.941Z,4.93
2023-03-15T14:39:29.890Z,4.43
2023-03-15T14:41:57.215Z,4.10
2023-03-15T14:44:24.210Z,4.23
2023-03-15T14:46:51.885Z,4.03
2023-03-15T14:49:26.503Z,4.77
2023-03-15T14:52:01.371Z,4.67
2023-03-15T14:54:32.670Z,4.33
2023-03-15T14:56:59.906Z,4.57
2023-03-15T14:59:27.101Z,4.13
2023-03-15T15:01:57.616Z,3.57
2023-03-15T15:04:30.028Z,4.67
2023-03-15T15:06:58.004Z,4.07
2023-03-15T15:09:29.105Z,4.73
2023-03-15T15:11:56.392Z,3.97
2023-03-15T15:14:23.942Z,4.30
2023-03-15T15:16:51.986Z,8.00
2023-03-15T15:19:19.275Z,3.63
2023-03-15T15:21:46.621Z,3.20
2023-03-15T15:24:16.845Z,3.53
2023-03-15T15:26:44.641Z,2.47
2023-03-15T15:29:14.293Z,2.87
2023-03-15T15:31:42.295Z,3.17
2023-03-15T15:34:10.540Z,2.80
2023-03-15T15:36:41.061Z,2.83
2023-03-15T15:39:18.303Z,2.43
2023-03-15T15:41:45.579Z,4.10
2023-03-15T15:44:16.949Z,4.03
2023-03-15T15:46:44.286Z,3.63
2023-03-15T15:49:11.376Z,3.33
2023-03-15T15:51:45.893Z,4.00
2023-03-15T15:54:19.445Z,3.57
2023-03-15T15:56:52.561Z,3.73
2023-03-15T15:59:20.049Z,3.67
2023-03-15T16:02:00.600Z,3.80
2023-03-15T16:04:29.011Z,3.60
2023-03-15T16:06:59.424Z,3.77
2023-03-15T16:09:28.764Z,4.00
2023-03-15T16:11:56.086Z,3.97
2023-03-15T16:14:23.215Z,3.60
2023-03-15T16:16:50.866Z,3.97
2023-03-15T16:19:17.826Z,4.00
2023-03-15T16:21:49.716Z,3.53
2023-03-15T16:24:21.694Z,3.63
2023-03-15T16:26:50.620Z,3.80
2023-03-15T16:29:23.252Z,3.67
2023-03-15T16:31:51.265Z,4.27
2023-03-15T16:34:19.658Z,3.37
2023-03-15T16:36:49.744Z,3.20
2023-03-15T16:39:17.377Z,3.37
2023-03-15T16:41:44.609Z,2.70
2023-03-15T16:44:16.508Z,3.23
2023-03-15T16:46:44.345Z,3.10
2023-03-15T16:49:13.174Z,3.30
2023-03-15T16:51:51.208Z,3.40
2023-03-15T16:54:30.875Z,3.40
2023-03-15T16:57:17.644Z,2.90
2023-03-15T16:59:44.653Z,3.70
2023-03-15T17:02:18.743Z,3.63
2023-03-15T17:04:46.234Z,3.40
2023-03-15T17:07:14.496Z,3.63
2023-03-15T17:09:47.612Z,3.40
2023-03-15T17:12:24.480Z,3.57
2023-03-15T17:14:52.688Z,3.10
2023-03-15T17:17:20.155Z,2.97
2023-03-15T17:19:48.347Z,3.20
2023-03-15T17:22:17.384Z,3.30
2023-03-15T17:24:44.691Z,3.67
2023-03-15T17:27:33.312Z,3.87
2023-03-15T17:30:00.449Z,4.03
2023-03-15T17:32:28.104Z,3.70
2023-03-15T17:34:58.913Z,3.67
2023-03-15T17:37:35.185Z,3.87
2023-03-15T17:40:12.270Z,3.77
2023-03-15T17:42:40.082Z,3.50
2023-03-15T17:45:20.810Z,3.93
2023-03-15T17:47:51.931Z,3.63
2023-03-15T17:50:19.337Z,3.57
2023-03-15T17:52:51.493Z,3.30
2023-03-15T17:55:21.426Z,4.40
2023-03-15T17:57:54.740Z,4.23
2023-03-15T18:00:24.062Z,3.70
2023-03-15T18:02:55.980Z,4.50
2023-03-15T18:05:28.908Z,4.33
2023-03-15T18:07:59.763Z,5.07
2023-03-15T18:10:35.939Z,3.73
2023-03-15T18:13:03.944Z,3.50
2023-03-15T18:15:31.150Z,3.73
2023-03-15T18:17:58.695Z,3.47
2023-03-15T18:20:26.071Z,4.93
2023-03-15T18:22:53.368Z,3.63
2023-03-15T18:25:21.643Z,4.90
2023-03-15T18:27:49.818Z,4.60
2023-03-15T18:30:22.993Z,4.40
2023-03-15T18:32:51.485Z,4.20
2023-03-15T18:35:21.973Z,4.43
2023-03-15T18:37:49.623Z,4.00
2023-03-15T18:40:18.828Z,3.50
2023-03-15T18:42:46.586Z,3.90
2023-03-15T18:45:22.331Z,4.60
2023-03-15T18:47:50.921Z,3.90
2023-03-15T18:50:19.169Z,4.10
2023-03-15T18:52:46.972Z,4.70
2023-03-15T18:55:16.394Z,3.70
2023-03-15T18:57:46.190Z,4.63
2023-03-15T19:00:23.890Z,3.80
2023-03-15T19:02:51.963Z,4.90
2023-03-15T19:05:19.632Z,4.10
2023-03-15T19:07:47.826Z,4.20
2023-03-15T19:10:19.093Z,4.37
2023-03-15T19:12:48.153Z,4.70
2023-03-15T19:15:17.693Z,4.23
2023-03-15T19:17:46.982Z,4.73
2023-03-15T19:20:16.898Z,4.27
2023-03-15T19:22:45.179Z,4.80
2023-03-15T19:25:13.924Z,4.37
2023-03-15T19:27:42.296Z,4.50
2023-03-15T19:30:17.898Z,4.33
2023-03-15T19:32:47.685Z,4.27
2023-03-15T19:35:15.333Z,4.90
2023-03-15T19:37:44.518Z,4.57
2023-03-15T19:40:13.421Z,4.97
2023-03-15T19:42:40.881Z,4.50
2023-03-15T19:45:08.894Z,5.57
2023-03-15T19:47:36.523Z,6.00
2023-03-15T19:50:04.156Z,5.53
2023-03-15T19:52:33.256Z,5.13
2023-03-15T19:55:01.317Z,6.00
2023-03-15T19:57:28.684Z,6.07
2023-03-15T19:59:55.837Z,5.60
2023-03-15T20:02:23.238Z,5.77
2023-03-15T20:04:50.423Z,6.03
2023-03-15T20:07:17.737Z,5.30
2023-03-15T20:09:44.817Z,5.50
2023-03-15T20:12:12.925Z,5.33
2023-03-15T20:14:39.997Z,5.30
2023-03-15T20:17:07.328Z,5.43
2023-03-15T20:19:35.985Z,5.40
2023-03-15T20:22:03.501Z,5.37
2023-03-15T20:24:30.673Z,6.37
2023-03-15T20:26:57.950Z,5.70
2023-03-15T20:29:24.966Z,5.50
2023-03-15T20:31:53.455Z,5.77
2023-03-15T20:34:22.085Z,5.17
2023-03-15T20:36:49.371Z,5.43
2023-03-15T20:39:18.442Z,5.00
2023-03-15T20:41:45.770Z,5.90
2023-03-15T20:44:12.930Z,5.00
2023-03-15T20:46:40.427Z,4.83
2023-03-15T20:49:07.457Z,5.47
2023-03-15T20:51:34.974Z,5.50
2023-03-15T20:54:02.635Z,4.87
2023-03-15T20:56:29.903Z,4.73
2023-03-15T20:58:56.993Z,4.47
2023-03-15T21:01:24.244Z,4.63
2023-03-15T21:03:53.106Z,4.47
2023-03-15T21:06:20.356Z,4.90
2023-03-15T21:08:47.340Z,3.90
2023-03-15T21:11:14.753Z,4.30
2023-03-15T21:13:41.809Z,4.33
2023-03-15T21:16:10.908Z,5.73
2023-03-15T21:18:38.476Z,4.50
2023-03-15T21:21:07.781Z,4.73
2023-03-15T21:23:35.762Z,5.27
2023-03-15T21:26:09.573Z,5.03
2023-03-15T21:28:38.025Z,5.50
2023-03-15T21:31:06.681Z,6.30
2023-03-15T21:33:33.991Z,5.70
2023-03-15T21:36:02.170Z,5.53
2023-03-15T21:38:31.536Z,6.63
2023-03-15T21:40:59.910Z,5.77
2023-03-15T21:43:29.118Z,7.07
2023-03-15T21:46:02.769Z,6.13
2023-03-15T21:48:30.584Z,6.67
2023-03-15T21:50:57.971Z,6.57
2023-03-15T21:53:25.053Z,6.37
2023-03-15T21:55:55.807Z,6.00
2023-03-15T21:58:22.953Z,5.83
2023-03-15T22:00:50.410Z,6.07
2023-03-15T22:03:17.436Z,5.70
2023-03-15T22:05:46.536Z,5.37
2023-03-15T22:08:13.475Z,6.67
2023-03-15T22:10:40.731Z,7.20
2023-03-15T22:13:07.718Z,6.93
2023-03-15T22:15:35.116Z,6.83
2023-03-15T22:18:02.347Z,6.17
2023-03-15T22:20:30.814Z,6.60
2023-03-15T22:22:57.754Z,5.87
2023-03-15T22:25:25.061Z,6.00
2023-03-15T22:27:52.181Z,6.17
2023-03-15T22:30:19.932Z,6.30
2023-03-15T22:32:47.077Z,6.30
2023-03-15T22:35:18.765Z,6.90
2023-03-15T22:37:45.832Z,6.23
2023-03-15T22:40:16.968Z,5.80
2023-03-15T22:42:44.293Z,6.20
2023-03-15T22:45:11.743Z,6.40
2023-03-15T22:47:38.836Z,7.70
2023-03-15T22:50:06.445Z,6.83
2023-03-15T22:52:33.365Z,6.70
2023-03-15T22:55:00.632Z,7.20
2023-03-15T22:57:27.637Z,8.40
2023-03-15T22:59:54.864Z,7.93
2023-03-15T23:02:21.863Z,7.50
2023-03-15T23:04:49.208Z,7.47
2023-03-15T23:07:16.212Z,7.73
2023-03-15T23:09:43.521Z,9.70
2023-03-15T23:12:11.158Z,8.87
2023-03-15T23:14:38.333Z,8.97
2023-03-15T23:17:05.399Z,8.37
2023-03-15T23:19:35.862Z,8.87
2023-03-15T23:22:06.862Z,8.57
2023-03-15T23:24:34.143Z,8.50
2023-03-15T23:27:03.471Z,9.07
2023-03-15T23:29:34.139Z,9.20
2023-03-15T23:32:09.478Z,9.20
2023-03-15T23:34:42.668Z,8.23
2023-03-15T23:37:10.607Z,8.80
2023-03-15T23:39:37.868Z,8.80
2023-03-15T23:42:05.220Z,8.23
2023-03-15T23:44:33.413Z,9.37
2023-03-15T23:47:02.851Z,9.67
2023-03-15T23:49:30.146Z,8.70
2023-03-15T23:51:57.339Z,8.90
2023-03-15T23:54:24.790Z,9.47
2023-03-15T23:56:51.740Z,9.10
2023-03-15T23:59:18.999Z,9.33
